weather.gov     
National Weather Service

Terminal Aerodrome Forecast
NWS Homepage
This page is being discontinued on March 12, 2014.
The same data is available at this site. Please update your bookmarks.
Thank you, and we apologize for the inconvenience.
Please send an email to SR-SRH.Webmaster@noaa.gov with any concerns.


Current Version
Previous Version:    01  02  03  04  05  06  07  08  09  10  11  12  13  14  15  16  17  18  19  20  21  22  23  24  25  26  27  28  29  30  
   31  32  33  34  35  36  37  38  39  40  41  42  43  44  45  
[Printable]
992
FTUS46 KOTX 241720
TAFPUW
TAF
KPUW 241720Z 2418/2518 16011KT P6SM VCSH SCT020 BKN035 OVC045
     FM242000 22018G26KT P6SM -SHRA VCTS SCT040CB BKN060
     FM250200 22011KT P6SM SCT060 BKN200
     FM250800 25006KT P6SM BKN080 OVC120
     FM251500 26009KT P6SM VCSH SCT025 OVC060=




992
FTUS46 KOTX 241720
TAFPUW
TAF
KPUW 241720Z 2418/2518 16011KT P6SM VCSH SCT020 BKN035 OVC045
     FM242000 22018G26KT P6SM -SHRA VCTS SCT040CB BKN060
     FM250200 22011KT P6SM SCT060 BKN200
     FM250800 25006KT P6SM BKN080 OVC120
     FM251500 26009KT P6SM VCSH SCT025 OVC060=


U.S. Dept. of Commerce
NOAA National Weather Service
1325 East West Highway
Silver Spring, MD 20910
E-mail: w-nws.webmaster@noaa.gov
Page last modified: May 16, 2007
NATIONAL WEATHER SERVICE: for Safety, for Work, for Fun - FOR LIFE